sensor_id;sensor_type;location;lat;lon;timestamp;pressure;altitude;pressure_sealevel;temperature;humidity
25664;BME280;13522;50.018;20.014;2022-07-19T00:00:35;99442.44;;;17.00;91.68
25664;BME280;13522;50.018;20.014;2022-07-19T00:03:57;99442.11;;;16.95;92.23
25664;BME280;13522;50.018;20.014;2022-07-19T00:07:09;99443.95;;;16.94;92.33
25664;BME280;13522;50.018;20.014;2022-07-19T00:10:21;99437.41;;;16.89;93.83
25664;BME280;13522;50.018;20.014;2022-07-19T00:13:38;99438.40;;;16.88;93.11
25664;BME280;13522;50.018;20.014;2022-07-19T00:16:56;99434.38;;;16.84;93.88
25664;BME280;13522;50.018;20.014;2022-07-19T00:20:20;99426.84;;;16.79;94.11
25664;BME280;13522;50.018;20.014;2022-07-19T00:23:37;99423.48;;;16.77;94.23
25664;BME280;13522;50.018;20.014;2022-07-19T00:26:50;99411.23;;;16.75;94.08
25664;BME280;13522;50.018;20.014;2022-07-19T00:30:05;99418.12;;;16.69;94.09
25664;BME280;13522;50.018;20.014;2022-07-19T00:33:20;99412.56;;;16.63;95.37
25664;BME280;13522;50.018;20.014;2022-07-19T00:36:36;99423.64;;;16.60;95.90
25664;BME280;13522;50.018;20.014;2022-07-19T00:39:50;99424.63;;;16.59;94.86
25664;BME280;13522;50.018;20.014;2022-07-19T00:43:05;99419.83;;;16.28;94.81
25664;BME280;13522;50.018;20.014;2022-07-19T00:46:19;99431.57;;;16.27;96.60
25664;BME280;13522;50.018;20.014;2022-07-19T00:49:39;99430.24;;;16.31;96.33
25664;BME280;13522;50.018;20.014;2022-07-19T00:52:56;99434.56;;;16.24;97.19
25664;BME280;13522;50.018;20.014;2022-07-19T00:56:15;99434.53;;;16.16;97.58
25664;BME280;13522;50.018;20.014;2022-07-19T00:59:32;99433.69;;;16.08;98.84
25664;BME280;13522;50.018;20.014;2022-07-19T01:02:52;99434.33;;;16.02;98.37
25664;BME280;13522;50.018;20.014;2022-07-19T01:06:09;99437.31;;;15.99;100.00
25664;BME280;13522;50.018;20.014;2022-07-19T01:09:26;99432.33;;;16.04;99.82
25664;BME280;13522;50.018;20.014;2022-07-19T01:12:39;99428.16;;;16.09;98.78
25664;BME280;13522;50.018;20.014;2022-07-19T01:15:58;99434.53;;;16.08;98.11
25664;BME280;13522;50.018;20.014;2022-07-19T01:19:16;99428.63;;;16.05;99.45
25664;BME280;13522;50.018;20.014;2022-07-19T01:22:30;99437.45;;;15.89;99.83
25664;BME280;13522;50.018;20.014;2022-07-19T01:25:46;99435.74;;;15.80;100.00
25664;BME280;13522;50.018;20.014;2022-07-19T01:28:59;99427.75;;;15.88;98.85
25664;BME280;13522;50.018;20.014;2022-07-19T01:32:23;99430.73;;;15.85;100.00
25664;BME280;13522;50.018;20.014;2022-07-19T01:35:40;99433.58;;;15.84;100.00
25664;BME280;13522;50.018;20.014;2022-07-19T01:38:53;99430.89;;;15.84;99.29
25664;BME280;13522;50.018;20.014;2022-07-19T01:42:11;99437.10;;;15.84;99.16
25664;BME280;13522;50.018;20.014;2022-07-19T01:45:25;99426.98;;;15.70;99.91
25664;BME280;13522;50.018;20.014;2022-07-19T01:48:41;99424.82;;;15.74;99.86
25664;BME280;13522;50.018;20.014;2022-07-19T01:52:00;99428.01;;;15.77;99.11
25664;BME280;13522;50.018;20.014;2022-07-19T01:55:14;99432.38;;;15.78;98.81
25664;BME280;13522;50.018;20.014;2022-07-19T01:58:30;99430.69;;;15.77;99.86
25664;BME280;13522;50.018;20.014;2022-07-19T02:01:50;99427.84;;;15.79;100.00
25664;BME280;13522;50.018;20.014;2022-07-19T02:05:09;99428.01;;;15.77;100.00
25664;BME280;13522;50.018;20.014;2022-07-19T02:08:25;99428.39;;;15.82;100.00
25664;BME280;13522;50.018;20.014;2022-07-19T02:11:39;99428.39;;;15.82;100.00
25664;BME280;13522;50.018;20.014;2022-07-19T02:14:58;99422.05;;;15.91;99.16
25664;BME280;13522;50.018;20.014;2022-07-19T02:18:12;99426.77;;;15.97;97.54
25664;BME280;13522;50.018;20.014;2022-07-19T02:21:29;99421.44;;;16.05;98.50
25664;BME280;13522;50.018;20.014;2022-07-19T02:24:42;99425.48;;;16.09;97.72
25664;BME280;13522;50.018;20.014;2022-07-19T02:28:01;99422.31;;;16.14;97.70
25664;BME280;13522;50.018;20.014;2022-07-19T02:31:18;99423.00;;;16.16;96.34
25664;BME280;13522;50.018;20.014;2022-07-19T02:34:34;99422.48;;;16.20;95.72
25664;BME280;13522;50.018;20.014;2022-07-19T02:37:48;99429.20;;;16.24;95.56
25664;BME280;13522;50.018;20.014;2022-07-19T02:41:07;99433.58;;;16.25;96.23
25664;BME280;13522;50.018;20.014;2022-07-19T02:44:21;99440.46;;;16.28;95.71
25664;BME280;13522;50.018;20.014;2022-07-19T02:47:34;99443.48;;;16.33;94.23
25664;BME280;13522;50.018;20.014;2022-07-19T02:50:49;99438.63;;;16.36;94.45
25664;BME280;13522;50.018;20.014;2022-07-19T02:54:01;99437.27;;;16.32;94.77
25664;BME280;13522;50.018;20.014;2022-07-19T02:57:16;99438.45;;;16.30;95.55
25664;BME280;13522;50.018;20.014;2022-07-19T03:00:30;99443.81;;;16.30;94.79
25664;BME280;13522;50.018;20.014;2022-07-19T03:03:48;99439.92;;;16.24;97.17
25664;BME280;13522;50.018;20.014;2022-07-19T03:07:05;99441.92;;;16.22;96.15
25664;BME280;13522;50.018;20.014;2022-07-19T03:10:18;99441.59;;;16.17;96.02
25664;BME280;13522;50.018;20.014;2022-07-19T03:13:37;99440.70;;;16.09;97.20
25664;BME280;13522;50.018;20.014;2022-07-19T03:16:54;99437.69;;;16.04;96.71
25664;BME280;13522;50.018;20.014;2022-07-19T03:20:12;99443.05;;;16.04;98.00
25664;BME280;13522;50.018;20.014;2022-07-19T03:23:32;99436.53;;;16.14;96.50
25664;BME280;13522;50.018;20.014;2022-07-19T03:26:46;99438.56;;;16.20;97.37
25664;BME280;13522;50.018;20.014;2022-07-19T03:30:09;99445.66;;;16.29;96.34
25664;BME280;13522;50.018;20.014;2022-07-19T03:33:22;99445.00;;;16.35;95.97
25664;BME280;13522;50.018;20.014;2022-07-19T03:36:39;99444.34;;;16.41;97.09
25664;BME280;13522;50.018;20.014;2022-07-19T03:39:53;99445.34;;;16.40;97.60
25664;BME280;13522;50.018;20.014;2022-07-19T03:43:11;99443.98;;;16.36;99.23
25664;BME280;13522;50.018;20.014;2022-07-19T03:46:32;99457.41;;;16.44;98.46
25664;BME280;13522;50.018;20.014;2022-07-19T03:49:48;99461.50;;;16.57;98.56
25664;BME280;13522;50.018;20.014;2022-07-19T03:53:04;99460.17;;;16.61;97.84
25664;BME280;13522;50.018;20.014;2022-07-19T03:56:17;99453.95;;;16.60;98.34
25664;BME280;13522;50.018;20.014;2022-07-19T03:59:28;99453.28;;;16.58;98.95
25664;BME280;13522;50.018;20.014;2022-07-19T04:02:40;99452.98;;;16.69;97.02
25664;BME280;13522;50.018;20.014;2022-07-19T04:05:53;99452.81;;;16.71;93.53
25664;BME280;13522;50.018;20.014;2022-07-19T04:09:05;99451.98;;;16.78;94.22
25664;BME280;13522;50.018;20.014;2022-07-19T04:12:17;99450.16;;;16.87;94.20
25664;BME280;13522;50.018;20.014;2022-07-19T04:15:29;99457.72;;;16.99;94.53
25664;BME280;13522;50.018;20.014;2022-07-19T04:18:46;99459.21;;;17.10;94.72
25664;BME280;13522;50.018;20.014;2022-07-19T04:21:59;99456.70;;;17.16;96.13
25664;BME280;13522;50.018;20.014;2022-07-19T04:25:11;99468.44;;;17.15;95.73
25664;BME280;13522;50.018;20.014;2022-07-19T04:28:25;99468.96;;;17.19;95.79
25664;BME280;13522;50.018;20.014;2022-07-19T04:31:37;99470.63;;;17.20;96.42
25664;BME280;13522;50.018;20.014;2022-07-19T04:34:49;99472.46;;;17.19;97.31
25664;BME280;13522;50.018;20.014;2022-07-19T04:38:01;99474.47;;;17.17;97.54
25664;BME280;13522;50.018;20.014;2022-07-19T04:41:13;99477.34;;;17.24;97.07
25664;BME280;13522;50.018;20.014;2022-07-19T04:44:27;99479.03;;;17.25;96.96
25664;BME280;13522;50.018;20.014;2022-07-19T04:47:39;99476.66;;;17.22;95.57
25664;BME280;13522;50.018;20.014;2022-07-19T04:50:51;99467.62;;;17.31;95.08
25664;BME280;13522;50.018;20.014;2022-07-19T04:54:02;99473.30;;;17.44;88.46
25664;BME280;13522;50.018;20.014;2022-07-19T04:57:14;99464.91;;;17.55;85.14
25664;BME280;13522;50.018;20.014;2022-07-19T05:00:27;99476.31;;;17.65;84.75
25664;BME280;13522;50.018;20.014;2022-07-19T05:03:39;99472.61;;;17.74;83.94
25664;BME280;13522;50.018;20.014;2022-07-19T05:06:51;99478.78;;;17.83;81.49
25664;BME280;13522;50.018;20.014;2022-07-19T05:10:03;99470.70;;;17.91;81.53
25664;BME280;13522;50.018;20.014;2022-07-19T05:13:17;99468.14;;;18.05;82.51
25664;BME280;13522;50.018;20.014;2022-07-19T05:16:29;99463.73;;;18.12;80.49
25664;BME280;13522;50.018;20.014;2022-07-19T05:19:41;99467.05;;;18.23;81.77
25664;BME280;13522;50.018;20.014;2022-07-19T05:22:53;99466.72;;;18.26;79.92
25664;BME280;13522;50.018;20.014;2022-07-19T05:26:05;99461.02;;;18.20;79.37
25664;BME280;13522;50.018;20.014;2022-07-19T05:29:18;99466.39;;;18.20;78.10
25664;BME280;13522;50.018;20.014;2022-07-19T05:32:31;99464.73;;;18.19;78.05
25664;BME280;13522;50.018;20.014;2022-07-19T05:35:44;99464.03;;;18.26;76.84
25664;BME280;13522;50.018;20.014;2022-07-19T05:38:58;99455.27;;;18.32;75.92
25664;BME280;13522;50.018;20.014;2022-07-19T05:42:10;99462.44;;;18.47;76.21
25664;BME280;13522;50.018;20.014;2022-07-19T05:45:21;99460.61;;;18.70;78.92
25664;BME280;13522;50.018;20.014;2022-07-19T05:48:33;99451.43;;;18.87;75.44
25664;BME280;13522;50.018;20.014;2022-07-19T05:51:45;99447.70;;;19.11;74.76
25664;BME280;13522;50.018;20.014;2022-07-19T05:54:57;99448.58;;;19.26;74.08
25664;BME280;13522;50.018;20.014;2022-07-19T05:58:08;99446.11;;;19.39;72.01
25664;BME280;13522;50.018;20.014;2022-07-19T06:01:23;99441.80;;;19.53;72.86
25664;BME280;13522;50.018;20.014;2022-07-19T06:04:35;99449.69;;;19.54;72.20
25664;BME280;13522;50.018;20.014;2022-07-19T06:07:47;99442.18;;;19.64;73.19
25664;BME280;13522;50.018;20.014;2022-07-19T06:10:59;99438.83;;;19.92;72.60
25664;BME280;13522;50.018;20.014;2022-07-19T06:14:23;99445.52;;;20.25;70.28
25664;BME280;13522;50.018;20.014;2022-07-19T06:17:48;99444.95;;;20.44;70.00
25664;BME280;13522;50.018;20.014;2022-07-19T06:21:13;99437.52;;;20.67;72.50
25664;BME280;13522;50.018;20.014;2022-07-19T08:08:30;99408.03;;;28.53;46.59
25664;BME280;13522;50.018;20.014;2022-07-19T08:11:43;99409.34;;;28.90;46.95
25664;BME280;13522;50.018;20.014;2022-07-19T08:14:55;99407.09;;;28.87;45.18
25664;BME280;13522;50.018;20.014;2022-07-19T08:18:07;99398.53;;;29.28;45.68
25664;BME280;13522;50.018;20.014;2022-07-19T08:21:19;99396.86;;;29.44;44.42
25664;BME280;13522;50.018;20.014;2022-07-19T08:24:32;99400.81;;;29.86;43.28
25664;BME280;13522;50.018;20.014;2022-07-19T08:27:45;99403.81;;;29.84;42.83
25664;BME280;13522;50.018;20.014;2022-07-19T08:30:57;99390.45;;;30.53;43.68
25664;BME280;13522;50.018;20.014;2022-07-19T08:34:12;99391.81;;;30.50;42.05
25664;BME280;13522;50.018;20.014;2022-07-19T08:37:24;99388.50;;;30.48;39.45
25664;BME280;13522;50.018;20.014;2022-07-19T08:40:40;99384.61;;;30.71;39.88
25664;BME280;13522;50.018;20.014;2022-07-19T08:43:56;99396.14;;;30.25;39.40
25664;BME280;13522;50.018;20.014;2022-07-19T08:47:11;99386.69;;;29.94;41.21
25664;BME280;13522;50.018;20.014;2022-07-19T08:50:23;99388.01;;;29.91;41.43
25664;BME280;13522;50.018;20.014;2022-07-19T08:53:36;99388.81;;;30.09;40.57
25664;BME280;13522;50.018;20.014;2022-07-19T08:56:50;99386.18;;;30.62;40.93
25664;BME280;13522;50.018;20.014;2022-07-19T09:00:17;99384.31;;;30.94;41.15
25664;BME280;13522;50.018;20.014;2022-07-19T09:03:29;99389.96;;;31.09;38.53
25664;BME280;13522;50.018;20.014;2022-07-19T09:06:43;99380.46;;;31.53;40.48
25664;BME280;13522;50.018;20.014;2022-07-19T09:10:21;99381.08;;;31.34;40.34
25664;BME280;13522;50.018;20.014;2022-07-19T09:13:35;99382.46;;;31.31;36.72
25664;BME280;13522;50.018;20.014;2022-07-19T09:16:56;99374.20;;;31.63;36.82
25664;BME280;13522;50.018;20.014;2022-07-19T09:20:26;99377.80;;;31.69;39.79
25664;BME280;13522;50.018;20.014;2022-07-19T09:23:38;99372.09;;;32.32;38.15
25664;BME280;13522;50.018;20.014;2022-07-19T09:27:00;99367.11;;;32.19;34.11
25664;BME280;13522;50.018;20.014;2022-07-19T09:30:13;99363.73;;;31.60;39.34
25664;BME280;13522;50.018;20.014;2022-07-19T09:33:29;99362.95;;;31.70;38.16
25664;BME280;13522;50.018;20.014;2022-07-19T09:36:42;99364.42;;;31.40;37.33
25664;BME280;13522;50.018;20.014;2022-07-19T09:39:56;99363.45;;;31.25;40.79
25664;BME280;13522;50.018;20.014;2022-07-19T09:43:12;99362.81;;;31.13;38.54
25664;BME280;13522;50.018;20.014;2022-07-19T09:46:32;99353.04;;;32.10;38.35
25664;BME280;13522;50.018;20.014;2022-07-19T09:49:49;99352.28;;;32.30;39.49
25664;BME280;13522;50.018;20.014;2022-07-19T09:53:04;99355.59;;;32.32;36.98
25664;BME280;13522;50.018;20.014;2022-07-19T09:56:18;99352.38;;;32.50;36.24
25664;BME280;13522;50.018;20.014;2022-07-19T09:59:32;99351.70;;;32.23;34.74
25664;BME280;13522;50.018;20.014;2022-07-19T10:02:47;99347.22;;;31.97;35.88
25664;BME280;13522;50.018;20.014;2022-07-19T10:06:01;99344.34;;;31.82;37.85
25664;BME280;13522;50.018;20.014;2022-07-19T10:09:15;99349.91;;;31.45;36.26
25664;BME280;13522;50.018;20.014;2022-07-19T10:12:33;99346.94;;;31.51;36.03
25664;BME280;13522;50.018;20.014;2022-07-19T10:15:51;99344.29;;;31.72;35.50
25664;BME280;13522;50.018;20.014;2022-07-19T10:21:17;99343.28;;;31.88;37.66
25664;BME280;13522;50.018;20.014;2022-07-19T10:30:52;99345.61;;;31.59;36.46
25664;BME280;13522;50.018;20.014;2022-07-19T10:34:09;99337.16;;;31.71;34.63
25664;BME280;13522;50.018;20.014;2022-07-19T10:37:42;99335.75;;;31.63;35.74
25664;BME280;13522;50.018;20.014;2022-07-19T10:41:04;99332.38;;;31.51;37.12
25664;BME280;13522;50.018;20.014;2022-07-19T10:44:33;99321.44;;;31.24;37.76
25664;BME280;13522;50.018;20.014;2022-07-19T10:48:12;99328.95;;;31.02;34.69
25664;BME280;13522;50.018;20.014;2022-07-19T10:51:50;99329.11;;;31.22;39.44
25664;BME280;13522;50.018;20.014;2022-07-19T10:55:25;99321.23;;;31.73;37.63
25664;BME280;13522;50.018;20.014;2022-07-19T10:58:49;99330.03;;;31.75;33.43
25664;BME280;13522;50.018;20.014;2022-07-19T11:02:02;99323.92;;;31.26;32.96
25664;BME280;13522;50.018;20.014;2022-07-19T11:05:24;99327.20;;;30.86;34.95
25664;BME280;13522;50.018;20.014;2022-07-19T11:08:38;99329.92;;;30.59;37.03
25664;BME280;13522;50.018;20.014;2022-07-19T11:11:52;99332.07;;;30.31;37.85
25664;BME280;13522;50.018;20.014;2022-07-19T11:43:08;99290.36;;;31.55;34.46
25664;BME280;13522;50.018;20.014;2022-07-19T11:46:23;99289.94;;;31.79;35.52
25664;BME280;13522;50.018;20.014;2022-07-19T11:49:41;99290.58;;;31.96;35.48
25664;BME280;13522;50.018;20.014;2022-07-19T11:52:55;99289.59;;;32.32;34.53
25664;BME280;13522;50.018;20.014;2022-07-19T11:56:19;99292.97;;;32.69;35.85
25664;BME280;13522;50.018;20.014;2022-07-19T11:59:33;99272.61;;;32.85;32.86
25664;BME280;13522;50.018;20.014;2022-07-19T12:03:00;99278.93;;;32.91;30.92
25664;BME280;13522;50.018;20.014;2022-07-19T12:06:15;99277.58;;;32.98;32.82
25664;BME280;13522;50.018;20.014;2022-07-19T12:09:29;99278.13;;;33.00;33.31
25664;BME280;13522;50.018;20.014;2022-07-19T12:12:42;99281.97;;;32.89;32.24
25664;BME280;13522;50.018;20.014;2022-07-19T12:15:56;99274.81;;;32.73;31.85
25664;BME280;13522;50.018;20.014;2022-07-19T12:19:12;99267.64;;;32.92;33.90
25664;BME280;13522;50.018;20.014;2022-07-19T12:22:32;99270.94;;;33.24;32.65
25664;BME280;13522;50.018;20.014;2022-07-19T12:25:44;99274.57;;;33.00;32.24
25664;BME280;13522;50.018;20.014;2022-07-19T12:28:57;99272.55;;;33.46;31.16
25664;BME280;13522;50.018;20.014;2022-07-19T12:32:10;99263.80;;;33.23;34.47
25664;BME280;13522;50.018;20.014;2022-07-19T12:35:24;99261.30;;;33.22;33.85
25664;BME280;13522;50.018;20.014;2022-07-19T12:38:37;99259.38;;;33.28;34.17
25664;BME280;13522;50.018;20.014;2022-07-19T12:42:06;99252.75;;;33.34;31.83
25664;BME280;13522;50.018;20.014;2022-07-19T12:45:23;99253.85;;;33.48;31.21
25664;BME280;13522;50.018;20.014;2022-07-19T12:48:38;99248.56;;;33.61;31.09
25664;BME280;13522;50.018;20.014;2022-07-19T12:51:55;99242.83;;;33.48;30.52
25664;BME280;13522;50.018;20.014;2022-07-19T12:55:10;99247.53;;;33.27;31.95
25664;BME280;13522;50.018;20.014;2022-07-19T12:58:24;99233.95;;;33.61;29.77
25664;BME280;13522;50.018;20.014;2022-07-19T13:01:52;99230.62;;;33.64;33.22
25664;BME280;13522;50.018;20.014;2022-07-19T13:05:05;99231.03;;;33.17;30.86
25664;BME280;13522;50.018;20.014;2022-07-19T13:08:18;99224.34;;;33.38;32.30
25664;BME280;13522;50.018;20.014;2022-07-19T13:11:30;99223.90;;;33.01;30.93
25664;BME280;13522;50.018;20.014;2022-07-19T13:14:42;99220.06;;;32.62;31.89
25664;BME280;13522;50.018;20.014;2022-07-19T13:17:54;99212.06;;;32.85;30.88
25664;BME280;13522;50.018;20.014;2022-07-19T13:21:06;99211.51;;;32.98;31.30
25664;BME280;13522;50.018;20.014;2022-07-19T13:24:20;99204.33;;;33.17;32.04
25664;BME280;13522;50.018;20.014;2022-07-19T13:27:34;99208.69;;;33.34;31.49
25664;BME280;13522;50.018;20.014;2022-07-19T13:30:46;99199.55;;;33.48;34.26
25664;BME280;13522;50.018;20.014;2022-07-19T13:33:58;99209.80;;;33.22;33.49
25664;BME280;13522;50.018;20.014;2022-07-19T13:37:10;99205.90;;;33.39;33.32
25664;BME280;13522;50.018;20.014;2022-07-19T13:40:22;99205.86;;;33.54;33.21
25664;BME280;13522;50.018;20.014;2022-07-19T13:43:35;99206.16;;;33.42;32.39
25664;BME280;13522;50.018;20.014;2022-07-19T13:46:47;99206.79;;;33.19;33.87
25664;BME280;13522;50.018;20.014;2022-07-19T13:49:58;99204.34;;;33.07;33.67
25664;BME280;13522;50.018;20.014;2022-07-19T13:53:11;99199.91;;;33.21;34.53
25664;BME280;13522;50.018;20.014;2022-07-19T13:56:24;99202.12;;;33.19;36.70
25664;BME280;13522;50.018;20.014;2022-07-19T13:59:35;99191.65;;;33.21;33.23
25664;BME280;13522;50.018;20.014;2022-07-19T14:02:48;99190.86;;;32.96;32.97
25664;BME280;13522;50.018;20.014;2022-07-19T14:06:00;99184.47;;;33.20;33.59
25664;BME280;13522;50.018;20.014;2022-07-19T14:09:11;99180.66;;;33.11;33.50
25664;BME280;13522;50.018;20.014;2022-07-19T14:12:23;99179.55;;;33.12;33.53
25664;BME280;13522;50.018;20.014;2022-07-19T14:15:36;99170.73;;;33.10;34.42
25664;BME280;13522;50.018;20.014;2022-07-19T14:18:49;99166.34;;;33.04;34.85
25664;BME280;13522;50.018;20.014;2022-07-19T14:22:02;99174.06;;;33.02;34.83
25664;BME280;13522;50.018;20.014;2022-07-19T14:25:14;99173.27;;;33.02;34.58
25664;BME280;13522;50.018;20.014;2022-07-19T14:28:26;99161.16;;;32.73;32.90
25664;BME280;13522;50.018;20.014;2022-07-19T14:31:37;99165.02;;;32.67;34.19
25664;BME280;13522;50.018;20.014;2022-07-19T14:34:50;99165.86;;;32.47;36.97
25664;BME280;13522;50.018;20.014;2022-07-19T14:38:03;99161.97;;;32.23;35.62
25664;BME280;13522;50.018;20.014;2022-07-19T14:41:15;99159.71;;;31.90;36.87
25664;BME280;13522;50.018;20.014;2022-07-19T14:44:27;99156.46;;;31.98;35.28
25664;BME280;13522;50.018;20.014;2022-07-19T14:47:38;99161.38;;;31.91;33.20
25664;BME280;13522;50.018;20.014;2022-07-19T14:50:53;99149.51;;;31.70;36.47
25664;BME280;13522;50.018;20.014;2022-07-19T14:54:05;99150.83;;;31.47;37.12
25664;BME280;13522;50.018;20.014;2022-07-19T14:57:19;99156.72;;;31.19;35.53
25664;BME280;13522;50.018;20.014;2022-07-19T15:00:31;99151.69;;;31.06;36.73
25664;BME280;13522;50.018;20.014;2022-07-19T15:03:44;99146.20;;;31.06;35.73
25664;BME280;13522;50.018;20.014;2022-07-19T15:06:56;99146.20;;;31.06;36.38
25664;BME280;13522;50.018;20.014;2022-07-19T15:10:09;99145.64;;;31.04;35.82
25664;BME280;13522;50.018;20.014;2022-07-19T15:13:21;99140.94;;;30.95;38.69
25664;BME280;13522;50.018;20.014;2022-07-19T15:16:33;99140.96;;;30.58;35.78
25664;BME280;13522;50.018;20.014;2022-07-19T15:19:46;99115.59;;;30.41;36.32
25664;BME280;13522;50.018;20.014;2022-07-19T15:25:59;99140.59;;;30.44;36.77
25664;BME280;13522;50.018;20.014;2022-07-19T15:35:11;99138.61;;;30.08;37.64
25664;BME280;13522;50.018;20.014;2022-07-19T15:38:25;99135.03;;;30.08;37.89
25664;BME280;13522;50.018;20.014;2022-07-19T15:41:38;99130.89;;;30.05;38.52
25664;BME280;13522;50.018;20.014;2022-07-19T15:50:50;99121.71;;;29.89;39.70
25664;BME280;13522;50.018;20.014;2022-07-19T18:12:58;99120.23;;;27.46;48.06
25664;BME280;13522;50.018;20.014;2022-07-19T18:16:14;99111.05;;;27.35;48.98
25664;BME280;13522;50.018;20.014;2022-07-19T18:19:29;99085.59;;;27.07;48.83
25664;BME280;13522;50.018;20.014;2022-07-19T18:22:44;99115.31;;;27.20;49.36
25664;BME280;13522;50.018;20.014;2022-07-19T18:25:59;99114.63;;;27.13;49.75
25664;BME280;13522;50.018;20.014;2022-07-19T18:29:15;99110.64;;;27.04;49.50
25664;BME280;13522;50.018;20.014;2022-07-19T18:32:39;99123.47;;;26.92;50.06
25664;BME280;13522;50.018;20.014;2022-07-19T18:35:55;99115.66;;;26.84;50.58
25664;BME280;13522;50.018;20.014;2022-07-19T18:39:31;99119.66;;;26.70;50.51
25664;BME280;13522;50.018;20.014;2022-07-19T18:42:48;99117.30;;;26.61;50.84
25664;BME280;13522;50.018;20.014;2022-07-19T18:46:08;99128.80;;;26.52;51.93
25664;BME280;13522;50.018;20.014;2022-07-19T20:18:02;99169.39;;;24.44;59.53
25664;BME280;13522;50.018;20.014;2022-07-19T20:21:24;99171.09;;;24.14;62.84
25664;BME280;13522;50.018;20.014;2022-07-19T20:24:37;99171.66;;;23.85;64.32
25664;BME280;13522;50.018;20.014;2022-07-19T20:27:49;99179.28;;;23.70;64.93
25664;BME280;13522;50.018;20.014;2022-07-19T20:31:01;99184.70;;;23.70;62.57
25664;BME280;13522;50.018;20.014;2022-07-19T20:34:14;99173.82;;;23.76;61.30
25664;BME280;13522;50.018;20.014;2022-07-19T20:37:26;99165.48;;;23.71;61.11
25664;BME280;13522;50.018;20.014;2022-07-19T20:41:06;99179.25;;;23.76;59.45
25664;BME280;13522;50.018;20.014;2022-07-19T20:50:43;99179.50;;;23.68;60.22
25664;BME280;13522;50.018;20.014;2022-07-19T20:57:17;99175.89;;;23.43;65.02
25664;BME280;13522;50.018;20.014;2022-07-19T21:03:33;99183.59;;;23.40;64.11
25664;BME280;13522;50.018;20.014;2022-07-19T21:07:45;99181.16;;;23.12;65.90
25664;BME280;13522;50.018;20.014;2022-07-19T21:14:58;99183.52;;;22.95;64.21
25664;BME280;13522;50.018;20.014;2022-07-19T21:19:00;99188.55;;;22.85;65.36
25664;BME280;13522;50.018;20.014;2022-07-19T21:22:14;99198.36;;;22.73;66.46
25664;BME280;13522;50.018;20.014;2022-07-19T21:25:28;99189.20;;;22.68;66.66
25664;BME280;13522;50.018;20.014;2022-07-19T21:28:45;99190.01;;;22.55;68.13
25664;BME280;13522;50.018;20.014;2022-07-19T21:33:04;99189.80;;;22.37;67.78
25664;BME280;13522;50.018;20.014;2022-07-19T21:36:18;99191.27;;;22.20;70.39
25664;BME280;13522;50.018;20.014;2022-07-19T21:39:32;99198.72;;;22.05;72.04
25664;BME280;13522;50.018;20.014;2022-07-19T21:42:49;99198.72;;;22.05;72.89
25664;BME280;13522;50.018;20.014;2022-07-19T21:46:06;99197.47;;;22.01;71.50
25664;BME280;13522;50.018;20.014;2022-07-19T21:49:20;99195.81;;;21.87;72.38
